Time;durP1;ratioP1;P1;durP2;ratioP2;P2;SDS_P1;SDS_P2;PMS_P1;PMS_P2;Temp;Humidity;BMP_temperature;BMP_pressure;BME280_temperature;BME280_humidity;BME280_pressure;Samples;Min_cycle;Max_cycle;Signal;HPM_P1;HPM_P2
2023/08/06 00:01:25;;;;;;;6.85;4.47;;;;;;;14.78;100.00;100224.97;6217027;23;20444;-84
2023/08/06 00:03:50;;;;;;;6.30;4.50;;;;;;;14.63;100.00;100203.78;6216953;23;20421;-83
2023/08/06 00:06:16;;;;;;;6.57;4.03;;;;;;;14.79;100.00;100223.09;6216996;23;20001;-84
2023/08/06 00:08:41;;;;;;;8.75;4.00;;;;;;;14.74;100.00;100220.19;6216939;23;20036;-83
2023/08/06 00:11:06;;;;;;;5.65;4.10;;;;;;;14.79;100.00;100229.25;6190510;23;20090;-83
2023/08/06 00:13:32;;;;;;;5.20;4.20;;;;;;;14.85;100.00;100238.28;6216718;23;20007;-83
2023/08/06 00:16:09;;;;;;;6.05;3.97;;;;;;;14.87;100.00;100233.59;6217646;23;20341;-85
2023/08/06 00:18:34;;;;;;;8.38;3.90;;;;;;;14.78;100.00;100224.13;6217413;23;20013;-83
2023/08/06 00:20:59;;;;;;;7.57;4.00;;;;;;;14.78;100.00;100222.28;6216988;23;20057;-83
2023/08/06 00:23:25;;;;;;;6.95;4.28;;;;;;;14.75;100.00;100205.88;6217300;23;20005;-84
2023/08/06 00:25:50;;;;;;;7.28;4.30;;;;;;;14.78;100.00;100211.63;6216593;23;20028;-83
2023/08/06 00:28:15;;;;;;;7.60;4.50;;;;;;;14.75;100.00;100196.00;6189865;23;20004;-84
2023/08/06 00:30:40;;;;;;;6.00;3.95;;;;;;;14.88;100.00;100226.38;6216693;23;20204;-84
2023/08/06 00:33:06;;;;;;;6.55;4.25;;;;;;;14.74;100.00;100205.03;6216880;23;20414;-83
2023/08/06 00:35:31;;;;;;;5.75;4.00;;;;;;;14.81;100.00;100221.06;6216699;23;20004;-83
2023/08/06 00:37:56;;;;;;;5.15;4.20;;;;;;;14.87;100.00;100220.25;6216371;23;20005;-83
2023/08/06 00:40:22;;;;;;;6.43;4.20;;;;;;;14.81;100.00;100204.22;6216700;23;20072;-83
2023/08/06 00:42:48;;;;;;;5.13;3.83;;;;;;;14.89;100.00;100222.69;6216449;23;20032;-83
2023/08/06 00:45:13;;;;;;;5.57;3.90;;;;;;;14.84;100.00;100219.84;6216858;23;20036;-83
2023/08/06 00:47:39;;;;;;;4.38;3.60;;;;;;;14.87;100.00;100222.91;6216709;23;20263;-83
2023/08/06 00:50:06;;;;;;;5.53;3.92;;;;;;;14.72;100.00;100206.22;6216210;23;20009;-82
2023/08/06 00:52:32;;;;;;;3.88;3.30;;;;;;;14.77;100.00;100211.81;6216383;23;20008;-82
2023/08/06 00:54:57;;;;;;;4.47;3.50;;;;;;;14.63;100.00;100198.44;6215979;23;20469;-83
2023/08/06 00:57:24;;;;;;;4.80;3.40;;;;;;;14.68;100.00;100216.50;6216599;23;20087;-84
2023/08/06 00:59:50;;;;;;;8.63;3.38;;;;;;;14.58;100.00;100198.22;6216490;23;20110;-83
2023/08/06 01:02:15;;;;;;;5.55;3.65;;;;;;;14.54;100.00;100207.66;6189875;23;20004;-83
2023/08/06 01:04:40;;;;;;;4.00;3.50;;;;;;;14.57;100.00;100209.94;6216295;23;20001;-83
2023/08/06 01:07:19;;;;;;;6.13;3.60;;;;;;;14.58;100.00;100210.72;6216399;23;20011;-82
2023/08/06 01:09:53;;;;;;;5.38;3.58;;;;;;;14.64;100.00;100210.75;6216507;23;20072;-83
2023/08/06 01:12:54;;;;;;;4.63;3.70;;;;;;;14.53;100.00;100190.84;6216396;23;20031;-82
2023/08/06 01:15:24;;;;;;;8.10;3.60;;;;;;;14.65;100.00;100204.38;6135648;23;20010;-82
2023/08/06 01:17:50;;;;;;;7.95;3.63;;;;;;;14.54;100.00;100188.97;6216236;23;20027;-83
2023/08/06 01:20:15;;;;;;;5.05;3.40;;;;;;;14.66;100.00;100202.53;6216337;23;20341;-82
2023/08/06 01:22:41;;;;;;;5.40;3.70;;;;;;;14.56;100.00;100192.25;6216250;23;20019;-83
2023/08/06 01:25:07;;;;;;;5.03;3.75;;;;;;;14.61;100.00;100205.81;6216098;23;20101;-82
2023/08/06 01:27:42;;;;;;;5.78;3.60;;;;;;;14.66;100.00;100208.69;6216719;23;20009;-82
2023/08/06 01:30:16;;;;;;;5.60;3.40;;;;;;;14.56;100.00;100191.44;6216411;23;20125;-82
2023/08/06 01:32:48;;;;;;;6.82;3.83;;;;;;;14.54;100.00;100194.31;6216265;23;20078;-80
2023/08/06 01:35:17;;;;;;;5.68;3.50;;;;;;;14.56;100.00;100192.25;6215809;23;20032;-81
2023/08/06 01:37:43;;;;;;;7.75;3.60;;;;;;;14.57;100.00;100191.25;6216019;23;20016;-82
2023/08/06 01:40:13;;;;;;;4.38;3.33;;;;;;;14.57;100.00;100199.25;6216148;23;20438;-82
2023/08/06 01:42:39;;;;;;;6.47;3.78;;;;;;;14.58;100.00;100200.88;6215875;23;20004;-82
2023/08/06 01:45:05;;;;;;;6.15;3.70;;;;;;;14.62;100.00;100201.31;6189592;23;20011;-82
2023/08/06 01:47:30;;;;;;;4.80;3.40;;;;;;;14.45;100.00;100179.53;6215878;23;20005;-82
2023/08/06 01:49:56;;;;;;;5.25;3.30;;;;;;;14.54;100.00;100183.63;6215124;23;20552;-81
2023/08/06 01:52:21;;;;;;;6.75;3.75;;;;;;;14.58;100.00;100198.22;6215757;23;20018;-81
2023/08/06 01:54:46;;;;;;;6.05;3.67;;;;;;;14.35;100.00;100180.75;6214865;23;20001;-83
2023/08/06 01:57:12;;;;;;;5.88;3.78;;;;;;;14.49;100.00;100204.75;6214514;23;20087;-83
2023/08/06 01:59:37;;;;;;;6.55;3.65;;;;;;;14.48;100.00;100200.47;6213495;23;20075;-83
2023/08/06 02:02:03;;;;;;;7.90;3.55;;;;;;;14.41;100.00;100202.31;6213815;23;20012;-83
2023/08/06 02:04:28;;;;;;;6.10;3.60;;;;;;;14.32;100.00;100186.50;6215221;23;20000;-83
2023/08/06 02:06:53;;;;;;;5.53;3.80;;;;;;;14.42;100.00;100191.44;6215665;23;20000;-83
2023/08/06 02:09:19;;;;;;;7.43;4.07;;;;;;;14.36;100.00;100182.38;6189393;23;20008;-83
2023/08/06 02:11:44;;;;;;;7.18;4.07;;;;;;;14.41;100.00;100199.63;6216650;23;20008;-83
2023/08/06 02:14:09;;;;;;;5.38;4.05;;;;;;;14.36;100.00;100197.59;6217148;23;20007;-83
2023/08/06 02:16:35;;;;;;;7.03;4.15;;;;;;;14.43;100.00;100208.25;6215689;23;20334;-82
2023/08/06 02:19:00;;;;;;;7.57;4.05;;;;;;;14.20;100.00;100182.75;6216069;23;20036;-83
2023/08/06 02:21:25;;;;;;;9.35;4.20;;;;;;;14.22;100.00;100186.06;6215868;23;20001;-82
2023/08/06 02:23:50;;;;;;;7.93;4.18;;;;;;;14.09;100.00;100179.66;6216251;23;20040;-82
2023/08/06 02:26:16;;;;;;;10.50;4.50;;;;;;;14.21;100.00;100185.22;6215648;23;20005;-82
2023/08/06 02:28:41;;;;;;;7.07;4.50;;;;;;;14.22;100.00;100183.41;6215767;23;20199;-83
2023/08/06 02:31:07;;;;;;;6.13;4.35;;;;;;;14.23;100.00;100190.38;6215565;23;20060;-82
2023/08/06 02:33:32;;;;;;;7.60;4.50;;;;;;;14.29;100.00;100192.22;6215456;23;20001;-82
2023/08/06 02:36:04;;;;;;;6.82;4.25;;;;;;;14.42;100.00;100209.28;6215546;23;20102;-82
2023/08/06 02:38:30;;;;;;;5.88;4.30;;;;;;;14.29;100.00;100188.72;6215595;23;20016;-81
2023/08/06 02:40:56;;;;;;;6.32;4.10;;;;;;;14.42;100.00;100206.59;6215617;23;20527;-82
2023/08/06 02:43:22;;;;;;;7.88;4.38;;;;;;;14.39;100.00;100197.16;6215535;23;20008;-83
2023/08/06 02:45:47;;;;;;;6.70;4.18;;;;;;;14.33;100.00;100193.47;6215738;23;20008;-82
2023/08/06 02:48:13;;;;;;;9.15;4.05;;;;;;;14.33;100.00;100198.81;6215350;23;20004;-82
2023/08/06 02:50:40;;;;;;;10.00;4.70;;;;;;;14.30;100.00;100193.06;6215608;23;20016;-82
2023/08/06 02:53:06;;;;;;;11.00;4.50;;;;;;;14.32;100.00;100180.34;6189143;23;20088;-82
2023/08/06 02:55:32;;;;;;;8.00;4.20;;;;;;;14.26;100.00;100176.63;6215445;23;20493;-83
2023/08/06 02:57:57;;;;;;;8.18;4.45;;;;;;;14.35;100.00;100191.41;6215482;23;20000;-83
2023/08/06 03:00:22;;;;;;;7.90;3.90;;;;;;;14.31;100.00;100178.69;6215933;23;20001;-82
2023/08/06 03:02:47;;;;;;;6.68;4.40;;;;;;;14.30;100.00;100175.19;6215710;23;20040;-82
2023/08/06 03:05:13;;;;;;;10.00;4.45;;;;;;;14.30;100.00;100171.72;6215979;23;20005;-82
2023/08/06 03:07:38;;;;;;;8.68;4.63;;;;;;;14.37;100.00;100199.22;6217374;23;20004;-83
2023/08/06 03:10:04;;;;;;;7.35;4.25;;;;;;;14.29;100.00;100186.06;6190906;23;20012;-82
2023/08/06 03:12:29;;;;;;;10.30;4.53;;;;;;;14.31;100.00;100195.50;6217780;23;20099;-82
2023/08/06 03:14:54;;;;;;;9.80;4.60;;;;;;;14.31;100.00;100187.50;6217844;23;20001;-82
2023/08/06 03:17:20;;;;;;;10.43;4.63;;;;;;;14.23;100.00;100177.88;6218749;23;20059;-82
2023/08/06 03:19:45;;;;;;;8.30;4.82;;;;;;;14.30;100.00;100196.53;6217222;23;20023;-82
2023/08/06 03:22:10;;;;;;;6.57;4.20;;;;;;;14.22;100.00;100178.06;6218072;23;20119;-83
2023/08/06 03:24:36;;;;;;;7.22;4.53;;;;;;;14.12;100.00;100165.94;6191621;23;20023;-83
2023/08/06 03:27:01;;;;;;;6.72;4.57;;;;;;;14.19;100.00;100186.44;6217585;23;20503;-83
2023/08/06 03:29:27;;;;;;;7.78;4.35;;;;;;;14.22;100.00;100189.53;6217803;23;20000;-83
2023/08/06 03:31:52;;;;;;;6.85;4.10;;;;;;;14.11;100.00;100180.28;6191008;23;20386;-83
2023/08/06 03:34:18;;;;;;;10.30;4.25;;;;;;;14.16;100.00;100186.88;6217598;23;20005;-83
2023/08/06 03:36:43;;;;;;;7.65;4.20;;;;;;;14.22;100.00;100196.72;6217441;23;20005;-83
2023/08/06 03:39:08;;;;;;;9.15;4.53;;;;;;;14.12;100.00;100179.25;6217392;23;20005;-83
2023/08/06 03:41:33;;;;;;;9.73;4.03;;;;;;;14.18;100.00;100192.81;6217899;23;20110;-83
2023/08/06 03:44:00;;;;;;;7.25;3.85;;;;;;;14.17;100.00;100194.66;6217861;23;20004;-82
2023/08/06 03:46:26;;;;;;;6.25;3.70;;;;;;;14.30;100.00;100199.19;6217819;23;20008;-83
2023/08/06 03:48:51;;;;;;;10.85;4.43;;;;;;;14.14;100.00;100189.72;6217441;23;20426;-84
2023/08/06 03:51:16;;;;;;;8.15;4.20;;;;;;;14.24;100.00;100202.66;6190890;23;20350;-83
2023/08/06 03:53:42;;;;;;;7.40;4.00;;;;;;;14.11;100.00;100185.63;6217503;23;20023;-83
2023/08/06 03:56:07;;;;;;;6.03;3.90;;;;;;;14.28;100.00;100201.25;6217460;23;20004;-84
2023/08/06 03:58:32;;;;;;;5.18;4.00;;;;;;;14.26;100.00;100198.78;6217236;23;20008;-84
2023/08/06 04:01:02;;;;;;;7.47;4.43;;;;;;;14.31;100.00;100208.03;6217238;23;20001;-83
2023/08/06 04:03:28;;;;;;;9.85;4.60;;;;;;;14.25;100.00;100212.31;6190495;23;20063;-83
2023/08/06 04:05:54;;;;;;;7.97;4.13;;;;;;;14.16;100.00;100197.53;6191125;23;20433;-84
2023/08/06 04:08:20;;;;;;;8.35;4.20;;;;;;;14.18;100.00;100195.47;6217351;23;20120;-82
2023/08/06 04:10:45;;;;;;;8.23;4.32;;;;;;;14.18;100.00;100200.81;6217333;23;20337;-84
2023/08/06 04:13:10;;;;;;;6.60;4.25;;;;;;;14.23;100.00;100215.19;6217659;23;20077;-84
2023/08/06 04:15:35;;;;;;;9.57;4.30;;;;;;;14.11;100.00;100201.63;6217275;23;20000;-83
2023/08/06 04:18:01;;;;;;;8.05;4.90;;;;;;;14.15;100.00;100203.88;6190384;23;20016;-84
2023/08/06 04:20:26;;;;;;;7.95;4.88;;;;;;;14.25;100.00;100222.97;6217518;23;20018;-84
2023/08/06 04:22:54;;;;;;;8.65;5.20;;;;;;;14.25;100.00;100212.31;6190773;23;20047;-84
2023/08/06 04:25:20;;;;;;;7.68;4.93;;;;;;;14.18;100.00;100211.47;6190626;23;20337;-84
2023/08/06 04:27:49;;;;;;;6.15;5.05;;;;;;;14.15;100.00;100206.56;6190980;23;20035;-84
2023/08/06 04:30:15;;;;;;;8.75;5.20;;;;;;;14.26;100.00;100224.63;6217437;23;20000;-84
2023/08/06 04:32:40;;;;;;;7.88;5.35;;;;;;;14.27;100.00;100218.28;6217348;23;20007;-84
2023/08/06 04:35:06;;;;;;;7.35;5.30;;;;;;;14.18;100.00;100200.81;6217076;23;20005;-84
2023/08/06 04:37:31;;;;;;;12.55;6.10;;;;;;;14.24;100.00;100208.00;6217258;23;20437;-85
2023/08/06 04:39:57;;;;;;;9.02;5.40;;;;;;;14.20;100.00;100220.09;6217467;23;20008;-84
2023/08/06 04:42:22;;;;;;;7.32;5.10;;;;;;;14.21;100.00;100213.75;6217256;23;20382;-82
2023/08/06 04:44:47;;;;;;;10.50;5.90;;;;;;;14.24;100.00;100226.66;6217197;23;20009;-83
2023/08/06 04:47:13;;;;;;;10.30;5.60;;;;;;;14.34;100.00;100235.13;6190494;23;20011;-84
2023/08/06 04:49:38;;;;;;;7.78;5.60;;;;;;;14.20;100.00;100215.59;6217267;23;20007;-83
2023/08/06 04:52:04;;;;;;;9.07;5.40;;;;;;;14.29;100.00;100234.06;6217025;23;20079;-83
2023/08/06 04:54:29;;;;;;;8.32;5.70;;;;;;;14.24;100.00;100227.50;6216978;23;20084;-83
2023/08/06 04:56:54;;;;;;;10.25;5.70;;;;;;;14.42;100.00;100241.28;6217397;23;20009;-83
2023/08/06 04:59:20;;;;;;;10.10;5.85;;;;;;;14.45;100.00;100235.56;6217307;23;20429;-84
2023/08/06 05:01:45;;;;;;;6.93;5.35;;;;;;;14.44;100.00;100229.38;6217025;23;20009;-83
2023/08/06 05:04:10;;;;;;;8.77;5.70;;;;;;;14.42;100.00;100222.59;6217653;23;20032;-83
2023/08/06 05:06:38;;;;;;;7.50;5.53;;;;;;;14.42;100.00;100233.28;6223102;23;20005;-81
2023/08/06 05:09:03;;;;;;;8.75;6.10;;;;;;;14.48;100.00;100243.97;6220317;23;20065;-83
2023/08/06 05:11:28;;;;;;;11.60;6.07;;;;;;;14.45;100.00;100238.22;6191655;23;20083;-84
2023/08/06 05:13:54;;;;;;;8.45;6.20;;;;;;;14.39;100.00;100231.84;6219316;23;20008;-83
2023/08/06 05:16:19;;;;;;;10.75;5.97;;;;;;;14.52;100.00;100249.72;6218736;23;20005;-83
2023/08/06 05:18:45;;;;;;;7.88;6.30;;;;;;;14.51;100.00;100253.41;6192106;23;20016;-83
2023/08/06 05:21:10;;;;;;;7.70;6.28;;;;;;;14.59;100.00;100255.88;6208050;23;20052;-84
2023/08/06 05:23:35;;;;;;;9.32;6.55;;;;;;;14.53;100.00;100257.53;6230395;23;20016;-84
2023/08/06 05:26:01;;;;;;;9.40;6.32;;;;;;;14.43;100.00;100245.59;6202812;23;20011;-84
2023/08/06 05:28:26;;;;;;;14.00;6.90;;;;;;;14.53;100.00;100251.38;6229569;23;20023;-84
2023/08/06 05:30:51;;;;;;;12.20;7.03;;;;;;;14.48;100.00;100246.66;6228656;23;20012;-85
2023/08/06 05:33:16;;;;;;;11.45;6.90;;;;;;;14.56;100.00;100250.94;6225530;23;20067;-84
2023/08/06 05:35:42;;;;;;;10.40;7.13;;;;;;;14.69;100.00;100260.03;6217610;23;20039;-84
2023/08/06 05:38:07;;;;;;;10.88;7.80;;;;;;;14.80;100.00;100264.75;6217223;23;20001;-84
2023/08/06 05:40:34;;;;;;;12.10;7.95;;;;;;;14.75;100.00;100268.06;6190094;23;20014;-83
2023/08/06 05:42:59;;;;;;;8.80;7.38;;;;;;;14.79;100.00;100281.81;6216978;23;20011;-84
2023/08/06 05:45:24;;;;;;;10.45;7.32;;;;;;;14.74;100.00;100281.56;6216514;23;20063;-84
2023/08/06 05:47:50;;;;;;;10.57;7.28;;;;;;;14.84;100.00;100290.03;6189913;23;20087;-85
2023/08/06 05:50:15;;;;;;;9.55;7.30;;;;;;;14.88;100.00;100296.63;6216383;23;20301;-85
2023/08/06 05:52:41;;;;;;;12.15;7.97;;;;;;;14.88;100.00;100306.47;6216458;23;20447;-84
2023/08/06 05:55:06;;;;;;;10.25;7.70;;;;;;;14.81;100.00;100290.47;6189669;23;20004;-84
2023/08/06 05:57:32;;;;;;;13.93;7.40;;;;;;;14.90;100.00;100307.91;6189722;23;20080;-84
2023/08/06 05:59:57;;;;;;;11.38;6.72;;;;;;;14.75;100.00;100292.06;6216149;23;20004;-84
2023/08/06 06:02:22;;;;;;;11.70;7.13;;;;;;;14.90;100.00;100310.56;6216652;23;20004;-84
2023/08/06 06:04:48;;;;;;;10.40;7.20;;;;;;;14.86;100.00;100313.88;6216236;23;20000;-83
2023/08/06 06:07:14;;;;;;;9.52;6.45;;;;;;;14.87;100.00;100311.00;6216270;23;20014;-82
2023/08/06 06:09:39;;;;;;;9.43;6.53;;;;;;;14.86;100.00;100314.66;6216135;23;20092;-82
2023/08/06 06:12:05;;;;;;;9.13;6.65;;;;;;;14.87;100.00;100321.69;6216043;23;20012;-84
2023/08/06 06:14:30;;;;;;;8.65;6.90;;;;;;;14.86;100.00;100320.00;6216975;23;20008;-83
2023/08/06 06:16:56;;;;;;;9.23;6.45;;;;;;;14.88;100.00;100323.31;6216132;23;20395;-83
2023/08/06 06:19:21;;;;;;;12.05;7.32;;;;;;;14.88;100.00;100323.31;6215621;23;20139;-83
2023/08/06 06:21:46;;;;;;;11.15;6.88;;;;;;;14.90;100.00;100329.25;6216372;23;20456;-83
2023/08/06 06:24:12;;;;;;;13.05;6.85;;;;;;;14.87;100.00;100337.69;6216259;23;20001;-83
2023/08/06 06:26:38;;;;;;;11.93;6.43;;;;;;;14.83;100.00;100327.59;6215889;23;20075;-83
2023/08/06 06:29:03;;;;;;;14.55;6.18;;;;;;;14.92;100.00;100353.91;6216021;23;20010;-83
2023/08/06 06:31:29;;;;;;;9.25;5.78;;;;;;;14.86;100.00;100336.03;6215886;23;20027;-83
2023/08/06 06:33:54;;;;;;;9.50;5.28;;;;;;;14.84;100.00;100348.75;6215844;23;20360;-84
2023/08/06 06:36:20;;;;;;;7.30;5.05;;;;;;;14.81;100.00;100349.19;6216014;23;20012;-84
2023/08/06 06:38:45;;;;;;;6.72;4.80;;;;;;;14.77;100.00;100350.59;6215923;23;20008;-83
2023/08/06 06:41:11;;;;;;;9.02;5.03;;;;;;;14.72;100.00;100356.50;6216856;23;20007;-84
2023/08/06 06:43:38;;;;;;;7.43;4.78;;;;;;;14.73;100.00;100357.31;6218416;23;20047;-84
2023/08/06 06:46:03;;;;;;;4.15;2.78;;;;;;;14.63;100.00;100363.03;6191625;23;20005;-83
2023/08/06 06:48:31;;;;;;;3.75;2.20;;;;;;;14.63;100.00;100385.22;6218629;23;20019;-82
2023/08/06 06:50:56;;;;;;;1.90;1.75;;;;;;;14.34;100.00;100371.13;6191596;23;20341;-81
2023/08/06 06:53:28;;;;;;;1.88;1.77;;;;;;;14.36;100.00;100395.75;6218309;23;20008;-82
2023/08/06 06:56:02;;;;;;;1.70;1.60;;;;;;;14.12;100.00;100389.88;6218737;23;20479;-82
2023/08/06 06:58:27;;;;;;;1.90;1.80;;;;;;;14.00;100.00;100388.78;6218689;23;20075;-84
2023/08/06 07:00:53;;;;;;;2.60;1.80;;;;;;;14.00;100.00;100402.13;6218452;23;20055;-83
2023/08/06 07:03:20;;;;;;;2.40;2.10;;;;;;;13.80;100.00;100381.50;6191737;23;20032;-83
2023/08/06 07:05:45;;;;;;;3.90;2.20;;;;;;;13.87;100.00;100388.72;6218619;23;20075;-84
2023/08/06 07:08:11;;;;;;;2.30;2.20;;;;;;;13.81;100.00;100399.13;6191924;23;20115;-83
2023/08/06 07:10:36;;;;;;;5.13;2.30;;;;;;;13.78;100.00;100402.19;6191501;23;20004;-82
2023/08/06 07:13:02;;;;;;;4.05;2.53;;;;;;;13.65;100.00;100420.72;6218449;23;20004;-83
2023/08/06 07:15:27;;;;;;;3.05;2.50;;;;;;;13.65;100.00;100415.38;6218455;23;20004;-83
2023/08/06 07:17:53;;;;;;;3.10;2.80;;;;;;;13.65;100.00;100426.03;6192005;23;20009;-83
2023/08/06 07:20:18;;;;;;;3.72;2.60;;;;;;;13.50;100.00;100418.97;6218061;23;20063;-82
2023/08/06 07:22:44;;;;;;;4.85;3.13;;;;;;;13.59;100.00;100433.78;6216904;23;20285;-79
2023/08/06 07:25:09;;;;;;;4.15;3.58;;;;;;;13.51;100.00;100435.78;6216807;23;20040;-81
2023/08/06 07:27:34;;;;;;;4.32;3.53;;;;;;;13.42;100.00;100427.88;6216494;23;20095;-80
2023/08/06 07:30:00;;;;;;;5.78;3.90;;;;;;;13.48;100.00;100444.97;6216951;23;19997;-80
2023/08/06 07:32:26;;;;;;;4.95;4.20;;;;;;;13.52;100.00;100443.56;6216276;23;20062;-80
2023/08/06 07:34:56;;;;;;;5.47;4.40;;;;;;;13.47;100.00;100456.63;6217149;23;20004;-81
2023/08/06 07:37:21;;;;;;;6.80;4.22;;;;;;;13.43;100.00;100450.00;6217009;23;20024;-80
2023/08/06 07:39:47;;;;;;;8.88;4.85;;;;;;;13.40;100.00;100455.69;6216737;23;20314;-80
2023/08/06 07:42:12;;;;;;;6.00;4.75;;;;;;;13.51;100.00;100463.22;6216526;23;20004;-81
2023/08/06 07:44:37;;;;;;;7.15;5.00;;;;;;;13.47;100.00;100467.28;6216597;23;20040;-81
2023/08/06 07:47:03;;;;;;;12.05;5.40;;;;;;;13.54;100.00;100478.00;6216729;23;20000;-80
2023/08/06 07:49:28;;;;;;;8.50;5.03;;;;;;;13.42;100.00;100464.34;6216520;23;20075;-81
2023/08/06 07:51:53;;;;;;;10.18;5.60;;;;;;;13.54;100.00;100473.50;6216376;23;20005;-81
2023/08/06 07:54:19;;;;;;;9.82;5.50;;;;;;;13.49;100.00;100473.25;6216158;23;20437;-80
2023/08/06 07:56:44;;;;;;;9.27;5.88;;;;;;;13.49;100.00;100473.25;6216556;23;20358;-81
2023/08/06 07:59:10;;;;;;;8.95;5.85;;;;;;;13.50;100.00;100477.56;6216529;23;20012;-82
2023/08/06 08:01:35;;;;;;;6.80;5.32;;;;;;;13.54;100.00;100473.50;6189785;23;20057;-84
2023/08/06 08:04:00;;;;;;;11.52;5.72;;;;;;;13.61;100.00;100486.06;6216653;23;20001;-82
2023/08/06 08:06:26;;;;;;;10.15;5.10;;;;;;;13.63;100.00;100476.03;6216515;23;20012;-83
2023/08/06 08:08:51;;;;;;;10.95;5.40;;;;;;;13.66;100.00;100475.66;6216428;23;20009;-84
2023/08/06 08:11:18;;;;;;;8.13;5.28;;;;;;;13.69;100.00;100473.44;6189649;23;20091;-83
2023/08/06 08:13:43;;;;;;;9.77;5.22;;;;;;;13.74;100.00;100478.19;6189917;23;20007;-84
2023/08/06 08:16:09;;;;;;;10.80;5.68;;;;;;;13.68;100.00;100476.28;6216375;23;20004;-84
2023/08/06 08:18:34;;;;;;;9.45;5.35;;;;;;;13.63;100.00;100476.03;6216611;23;20016;-83
2023/08/06 08:20:59;;;;;;;10.73;5.25;;;;;;;13.67;100.00;100479.97;6189944;23;20005;-85
2023/08/06 08:23:25;;;;;;;11.90;5.13;;;;;;;13.68;100.00;100478.97;6216127;23;20058;-85
2023/08/06 08:25:50;;;;;;;12.57;5.00;;;;;;;13.58;100.00;100477.41;6216433;23;20016;-85
2023/08/06 08:28:16;;;;;;;10.10;4.35;;;;;;;13.54;100.00;100484.16;6216335;23;20080;-84
2023/08/06 08:30:41;;;;;;;8.07;4.60;;;;;;;13.39;100.00;100476.19;6216745;23;20039;-83
2023/08/06 08:33:07;;;;;;;11.43;4.50;;;;;;;13.55;100.00;100503.63;6216255;23;20004;-84
2023/08/06 08:35:33;;;;;;;9.15;4.70;;;;;;;13.63;100.00;100505.34;6216716;23;20074;-85
2023/08/06 08:37:59;;;;;;;7.57;4.57;;;;;;;13.64;100.00;100513.16;6216554;23;20004;-84
2023/08/06 08:40:29;;;;;;;8.70;3.88;;;;;;;13.58;100.00;100512.06;6217084;23;20004;-84
2023/08/06 08:42:56;;;;;;;5.38;3.40;;;;;;;13.48;100.00;100500.91;6216383;23;20044;-83
2023/08/06 08:45:25;;;;;;;5.22;3.35;;;;;;;13.63;100.00;100508.84;6216200;23;20084;-86
2023/08/06 08:47:51;;;;;;;7.88;3.60;;;;;;;13.64;100.00;100509.66;6216210;23;20004;-84
2023/08/06 08:50:18;;;;;;;7.80;3.60;;;;;;;13.58;100.00;100512.06;6216188;23;20147;-84
2023/08/06 08:52:45;;;;;;;6.90;3.40;;;;;;;13.52;100.00;100496.84;6216327;23;20066;-84
2023/08/06 08:55:13;;;;;;;9.88;4.00;;;;;;;13.57;100.00;100512.28;6216385;23;20058;-84
2023/08/06 08:57:39;;;;;;;10.27;3.90;;;;;;;13.72;100.00;100528.19;6216221;23;20015;-83
2023/08/06 09:00:05;;;;;;;9.13;3.90;;;;;;;13.52;100.00;100512.00;6216178;23;20334;-82
2023/08/06 09:02:32;;;;;;;9.27;3.90;;;;;;;13.70;100.00;100538.19;6216078;23;20064;-82
2023/08/06 09:05:02;;;;;;;10.65;4.25;;;;;;;13.67;100.00;100542.06;6216092;23;20016;-84
2023/08/06 09:07:31;;;;;;;8.82;4.22;;;;;;;13.61;100.00;100528.69;6189249;23;20334;-84
2023/08/06 09:09:59;;;;;;;9.77;4.20;;;;;;;13.61;100.00;100531.34;6216310;23;20035;-84
2023/08/06 09:12:25;;;;;;;8.32;4.40;;;;;;;13.61;100.00;100542.00;6189643;23;20028;-84
2023/08/06 09:14:50;;;;;;;9.15;4.32;;;;;;;13.61;100.00;100537.50;6216123;23;20001;-84
2023/08/06 09:17:19;;;;;;;13.63;4.78;;;;;;;13.78;100.00;100567.41;6189455;23;20409;-84
2023/08/06 09:19:46;;;;;;;11.02;4.95;;;;;;;13.80;100.00;100570.69;6189634;23;20046;-83
2023/08/06 09:22:13;;;;;;;9.48;4.30;;;;;;;13.81;100.00;100569.69;6216541;23;20008;-84
2023/08/06 09:24:40;;;;;;;8.52;4.22;;;;;;;13.69;100.00;100549.88;6215695;23;20430;-83
2023/08/06 09:27:12;;;;;;;9.88;4.50;;;;;;;13.76;100.00;100577.41;6189236;23;20015;-82
2023/08/06 09:29:40;;;;;;;9.98;4.28;;;;;;;13.82;100.00;100586.50;6216551;23;20108;-84
2023/08/06 09:32:06;;;;;;;11.75;4.47;;;;;;;13.79;100.00;100586.88;6189364;23;20486;-84
2023/08/06 09:34:31;;;;;;;8.43;4.30;;;;;;;13.74;100.00;100574.13;6189304;23;20076;-84
2023/08/06 09:36:56;;;;;;;8.05;4.20;;;;;;;13.80;100.00;100594.69;6215926;23;20004;-84
2023/08/06 09:39:27;;;;;;;8.57;4.30;;;;;;;13.79;100.00;100587.72;6215857;23;20127;-83
2023/08/06 09:41:56;;;;;;;8.23;4.10;;;;;;;13.83;100.00;100594.28;6216330;23;20063;-83
2023/08/06 09:44:23;;;;;;;9.73;4.30;;;;;;;13.88;100.00;100600.91;6215886;23;20118;-83
2023/08/06 09:46:53;;;;;;;7.70;4.10;;;;;;;13.85;100.00;100602.94;6216125;23;20007;-83
2023/08/06 09:49:26;;;;;;;8.27;4.40;;;;;;;13.81;100.00;100598.19;6216246;23;20001;-82
2023/08/06 09:51:55;;;;;;;11.02;4.32;;;;;;;13.81;100.00;100596.31;6215664;23;20091;-84
2023/08/06 09:54:22;;;;;;;13.18;4.00;;;;;;;13.82;100.00;100597.97;6215619;23;20015;-82
2023/08/06 09:56:48;;;;;;;11.10;4.50;;;;;;;13.94;100.00;100610.81;6215403;23;20131;-83
2023/08/06 09:59:15;;;;;;;11.77;4.43;;;;;;;13.89;100.00;100606.06;6215626;23;20421;-83
2023/08/06 10:01:41;;;;;;;8.45;4.00;;;;;;;13.94;100.00;100613.47;6215898;23;20414;-83
2023/08/06 10:04:11;;;;;;;8.25;4.28;;;;;;;13.82;100.00;100600.63;6215306;23;20019;-83
2023/08/06 10:06:37;;;;;;;8.43;3.90;;;;;;;13.80;100.00;100600.00;6215130;23;20001;-84
2023/08/06 10:09:03;;;;;;;7.13;3.83;;;;;;;14.02;100.00;100618.69;6215724;23;20016;-83
2023/08/06 10:11:29;;;;;;;8.00;4.13;;;;;;;14.05;100.00;100625.47;6215406;23;20000;-83
2023/08/06 10:14:08;;;;;;;8.27;3.60;;;;;;;13.93;100.00;100609.16;6215609;23;20000;-83
2023/08/06 10:16:34;;;;;;;9.68;4.13;;;;;;;13.98;100.00;100623.56;6214925;23;20004;-83
2023/08/06 10:19:01;;;;;;;9.07;3.83;;;;;;;13.98;100.00;100622.75;6188607;23;20012;-84
2023/08/06 10:21:29;;;;;;;7.13;3.72;;;;;;;13.73;100.00;100601.78;6215705;23;20051;-84
2023/08/06 10:23:55;;;;;;;7.03;3.50;;;;;;;13.91;100.00;100628.00;6215833;23;20016;-83
2023/08/06 10:26:20;;;;;;;9.63;3.80;;;;;;;13.94;100.00;100621.47;6215458;23;20000;-83
2023/08/06 10:28:45;;;;;;;6.53;3.70;;;;;;;13.88;100.00;100611.56;6215867;23;20009;-84
2023/08/06 10:31:11;;;;;;;5.55;3.60;;;;;;;13.93;100.00;100618.00;6215598;23;20011;-82
2023/08/06 10:33:44;;;;;;;10.27;3.70;;;;;;;14.01;100.00;100630.34;6214887;23;20032;-83
2023/08/06 10:36:10;;;;;;;7.32;3.92;;;;;;;14.10;100.00;100637.22;6215714;23;20004;-83
2023/08/06 10:38:45;;;;;;;10.57;4.18;;;;;;;14.10;100.00;100636.38;6189091;23;20063;-83
2023/08/06 10:41:16;;;;;;;8.15;3.80;;;;;;;14.08;100.00;100636.59;6215775;23;20441;-84
2023/08/06 10:43:44;;;;;;;8.52;3.88;;;;;;;14.06;100.00;100630.63;6188878;23;20012;-84
2023/08/06 10:46:12;;;;;;;7.32;3.92;;;;;;;14.21;100.00;100637.75;6215748;23;20012;-84
2023/08/06 10:48:41;;;;;;;8.38;4.03;;;;;;;14.16;100.00;100637.50;6216305;23;20001;-85
2023/08/06 10:51:12;;;;;;;10.13;3.90;;;;;;;14.16;100.00;100635.63;6189237;23;20317;-85
2023/08/06 10:53:41;;;;;;;8.27;3.80;;;;;;;14.22;100.00;100634.06;6215489;23;20001;-85
2023/08/06 10:56:17;;;;;;;7.65;3.70;;;;;;;14.29;100.00;100650.94;6216039;23;20004;-85
2023/08/06 10:58:43;;;;;;;9.38;4.10;;;;;;;14.05;100.00;100623.63;6215671;23;20008;-85
2023/08/06 11:01:09;;;;;;;7.95;3.90;;;;;;;14.24;100.00;100648.03;6188938;23;20302;-84
2023/08/06 11:03:35;;;;;;;8.77;3.90;;;;;;;14.23;100.00;100646.38;6215783;23;20004;-83
2023/08/06 11:06:02;;;;;;;8.10;3.80;;;;;;;14.11;100.00;100633.53;6215648;23;20008;-83
2023/08/06 11:08:28;;;;;;;7.40;3.83;;;;;;;14.28;100.00;100657.31;6215746;23;20008;-84
2023/08/06 11:10:54;;;;;;;7.90;4.05;;;;;;;14.28;100.00;100661.78;6215606;23;20013;-84